sensor_id;sensor_type;location;lat;lon;timestamp;P1;durP1;ratioP1;P2;durP2;ratioP2
69835;SDS011;57132;51.972;4.450;2023-04-01T00:01:59;105.43;;;23.00;;
69835;SDS011;57132;51.972;4.450;2023-04-01T00:04:25;77.20;;;20.13;;
69835;SDS011;57132;51.972;4.450;2023-04-01T00:06:50;85.45;;;23.27;;
69835;SDS011;57132;51.972;4.450;2023-04-01T00:09:16;95.88;;;23.23;;
69835;SDS011;57132;51.972;4.450;2023-04-01T00:11:42;81.47;;;24.08;;
69835;SDS011;57132;51.972;4.450;2023-04-01T00:14:09;91.63;;;19.98;;
69835;SDS011;57132;51.972;4.450;2023-04-01T00:16:35;105.60;;;22.67;;
69835;SDS011;57132;51.972;4.450;2023-04-01T00:19:00;92.88;;;25.35;;
69835;SDS011;57132;51.972;4.450;2023-04-01T00:21:26;91.15;;;21.95;;
69835;SDS011;57132;51.972;4.450;2023-04-01T00:23:51;108.80;;;27.83;;
69835;SDS011;57132;51.972;4.450;2023-04-01T00:26:17;104.00;;;26.77;;
69835;SDS011;57132;51.972;4.450;2023-04-01T00:28:45;81.40;;;21.55;;
69835;SDS011;57132;51.972;4.450;2023-04-01T00:31:11;91.30;;;21.73;;
69835;SDS011;57132;51.972;4.450;2023-04-01T00:33:37;87.25;;;21.27;;
69835;SDS011;57132;51.972;4.450;2023-04-01T00:36:10;88.70;;;20.77;;
69835;SDS011;57132;51.972;4.450;2023-04-01T00:41:03;101.00;;;24.00;;
69835;SDS011;57132;51.972;4.450;2023-04-01T00:43:30;98.70;;;23.75;;
69835;SDS011;57132;51.972;4.450;2023-04-01T00:45:55;85.63;;;22.65;;
69835;SDS011;57132;51.972;4.450;2023-04-01T00:48:25;83.13;;;26.80;;
69835;SDS011;57132;51.972;4.450;2023-04-01T00:53:43;80.97;;;25.55;;
69835;SDS011;57132;51.972;4.450;2023-04-01T00:56:12;84.78;;;23.20;;
69835;SDS011;57132;51.972;4.450;2023-04-01T00:58:44;92.70;;;22.00;;
69835;SDS011;57132;51.972;4.450;2023-04-01T01:01:13;104.40;;;26.48;;
69835;SDS011;57132;51.972;4.450;2023-04-01T01:03:39;86.60;;;20.67;;
69835;SDS011;57132;51.972;4.450;2023-04-01T01:06:12;105.40;;;26.25;;
69835;SDS011;57132;51.972;4.450;2023-04-01T01:11:43;96.95;;;20.63;;
69835;SDS011;57132;51.972;4.450;2023-04-01T01:27:29;87.55;;;19.98;;
69835;SDS011;57132;51.972;4.450;2023-04-01T01:38:05;73.93;;;17.60;;
69835;SDS011;57132;51.972;4.450;2023-04-01T01:40:34;55.45;;;12.27;;
69835;SDS011;57132;51.972;4.450;2023-04-01T01:43:06;56.15;;;12.60;;
69835;SDS011;57132;51.972;4.450;2023-04-01T01:45:35;55.90;;;13.57;;
69835;SDS011;57132;51.972;4.450;2023-04-01T01:48:04;52.22;;;13.57;;
69835;SDS011;57132;51.972;4.450;2023-04-01T01:50:32;41.10;;;13.15;;
69835;SDS011;57132;51.972;4.450;2023-04-01T01:53:05;51.22;;;14.07;;
69835;SDS011;57132;51.972;4.450;2023-04-01T01:55:35;62.95;;;13.57;;
69835;SDS011;57132;51.972;4.450;2023-04-01T02:01:06;46.30;;;12.48;;
69835;SDS011;57132;51.972;4.450;2023-04-01T02:03:35;47.97;;;14.18;;
69835;SDS011;57132;51.972;4.450;2023-04-01T02:06:04;55.42;;;14.75;;
69835;SDS011;57132;51.972;4.450;2023-04-01T02:11:13;44.50;;;11.40;;
69835;SDS011;57132;51.972;4.450;2023-04-01T02:13:49;33.35;;;10.68;;
69835;SDS011;57132;51.972;4.450;2023-04-01T02:16:31;35.50;;;10.88;;
69835;SDS011;57132;51.972;4.450;2023-04-01T02:19:01;39.30;;;11.60;;
69835;SDS011;57132;51.972;4.450;2023-04-01T02:21:32;39.83;;;11.88;;
69835;SDS011;57132;51.972;4.450;2023-04-01T02:23:59;39.67;;;11.45;;
69835;SDS011;57132;51.972;4.450;2023-04-01T02:26:27;36.25;;;11.15;;
69835;SDS011;57132;51.972;4.450;2023-04-01T02:28:53;33.22;;;9.70;;
69835;SDS011;57132;51.972;4.450;2023-04-01T02:31:20;32.47;;;11.10;;
69835;SDS011;57132;51.972;4.450;2023-04-01T02:33:47;34.95;;;11.20;;
69835;SDS011;57132;51.972;4.450;2023-04-01T02:36:13;27.05;;;9.25;;
69835;SDS011;57132;51.972;4.450;2023-04-01T02:38:39;24.95;;;9.15;;
69835;SDS011;57132;51.972;4.450;2023-04-01T02:41:06;36.83;;;10.10;;
69835;SDS011;57132;51.972;4.450;2023-04-01T02:43:32;34.65;;;10.23;;
69835;SDS011;57132;51.972;4.450;2023-04-01T02:45:58;23.98;;;9.15;;
69835;SDS011;57132;51.972;4.450;2023-04-01T02:48:23;25.73;;;8.45;;
69835;SDS011;57132;51.972;4.450;2023-04-01T02:50:49;27.33;;;9.32;;
69835;SDS011;57132;51.972;4.450;2023-04-01T02:53:14;21.20;;;8.07;;
69835;SDS011;57132;51.972;4.450;2023-04-01T02:55:40;28.65;;;9.77;;
69835;SDS011;57132;51.972;4.450;2023-04-01T02:58:05;43.78;;;10.55;;
69835;SDS011;57132;51.972;4.450;2023-04-01T03:00:31;35.63;;;11.07;;
69835;SDS011;57132;51.972;4.450;2023-04-01T03:02:56;39.15;;;13.68;;
69835;SDS011;57132;51.972;4.450;2023-04-01T03:05:22;51.25;;;13.68;;
69835;SDS011;57132;51.972;4.450;2023-04-01T03:07:48;57.95;;;16.40;;
69835;SDS011;57132;51.972;4.450;2023-04-01T03:10:14;65.80;;;17.88;;
69835;SDS011;57132;51.972;4.450;2023-04-01T03:12:39;72.43;;;17.42;;
69835;SDS011;57132;51.972;4.450;2023-04-01T03:15:05;72.25;;;19.70;;
69835;SDS011;57132;51.972;4.450;2023-04-01T03:17:31;82.72;;;19.23;;
69835;SDS011;57132;51.972;4.450;2023-04-01T03:19:56;90.63;;;21.10;;
69835;SDS011;57132;51.972;4.450;2023-04-01T03:22:22;87.13;;;19.98;;
69835;SDS011;57132;51.972;4.450;2023-04-01T03:24:48;89.50;;;19.77;;
69835;SDS011;57132;51.972;4.450;2023-04-01T03:27:13;94.20;;;20.73;;
69835;SDS011;57132;51.972;4.450;2023-04-01T03:29:39;95.63;;;21.20;;
69835;SDS011;57132;51.972;4.450;2023-04-01T03:32:05;89.28;;;21.65;;
69835;SDS011;57132;51.972;4.450;2023-04-01T03:34:30;101.35;;;21.40;;
69835;SDS011;57132;51.972;4.450;2023-04-01T03:36:56;92.60;;;21.00;;
69835;SDS011;57132;51.972;4.450;2023-04-01T03:39:22;85.97;;;20.40;;
69835;SDS011;57132;51.972;4.450;2023-04-01T03:41:48;104.05;;;22.77;;
69835;SDS011;57132;51.972;4.450;2023-04-01T03:44:13;94.57;;;21.13;;
69835;SDS011;57132;51.972;4.450;2023-04-01T03:46:39;81.35;;;18.63;;
69835;SDS011;57132;51.972;4.450;2023-04-01T03:49:10;84.65;;;17.60;;
69835;SDS011;57132;51.972;4.450;2023-04-01T03:51:43;82.15;;;19.80;;
69835;SDS011;57132;51.972;4.450;2023-04-01T03:54:09;86.72;;;18.77;;
69835;SDS011;57132;51.972;4.450;2023-04-01T03:56:35;100.90;;;20.30;;
69835;SDS011;57132;51.972;4.450;2023-04-01T03:59:02;81.63;;;18.95;;
69835;SDS011;57132;51.972;4.450;2023-04-01T04:01:30;94.00;;;18.45;;
69835;SDS011;57132;51.972;4.450;2023-04-01T04:03:55;89.75;;;19.00;;
69835;SDS011;57132;51.972;4.450;2023-04-01T04:06:22;84.47;;;17.27;;
69835;SDS011;57132;51.972;4.450;2023-04-01T04:08:49;84.32;;;17.77;;
69835;SDS011;57132;51.972;4.450;2023-04-01T04:11:14;77.90;;;17.65;;
69835;SDS011;57132;51.972;4.450;2023-04-01T04:13:41;74.28;;;16.75;;
69835;SDS011;57132;51.972;4.450;2023-04-01T04:16:07;78.63;;;16.80;;
69835;SDS011;57132;51.972;4.450;2023-04-01T04:18:33;73.10;;;16.33;;
69835;SDS011;57132;51.972;4.450;2023-04-01T04:20:59;78.00;;;17.40;;
69835;SDS011;57132;51.972;4.450;2023-04-01T04:23:24;77.60;;;17.85;;
69835;SDS011;57132;51.972;4.450;2023-04-01T04:26:03;69.93;;;17.55;;
69835;SDS011;57132;51.972;4.450;2023-04-01T04:28:30;76.55;;;17.67;;
69835;SDS011;57132;51.972;4.450;2023-04-01T04:30:56;73.00;;;16.73;;
69835;SDS011;57132;51.972;4.450;2023-04-01T04:33:22;78.18;;;18.55;;
69835;SDS011;57132;51.972;4.450;2023-04-01T04:35:49;66.03;;;16.13;;
69835;SDS011;57132;51.972;4.450;2023-04-01T04:38:15;66.65;;;16.52;;
69835;SDS011;57132;51.972;4.450;2023-04-01T04:40:40;75.40;;;17.85;;
69835;SDS011;57132;51.972;4.450;2023-04-01T04:43:07;70.75;;;19.17;;
69835;SDS011;57132;51.972;4.450;2023-04-01T04:45:36;68.13;;;19.13;;
69835;SDS011;57132;51.972;4.450;2023-04-01T04:48:01;54.55;;;17.60;;
69835;SDS011;57132;51.972;4.450;2023-04-01T04:50:27;73.03;;;19.02;;
69835;SDS011;57132;51.972;4.450;2023-04-01T04:52:52;67.13;;;19.30;;
69835;SDS011;57132;51.972;4.450;2023-04-01T04:55:18;73.68;;;20.77;;
69835;SDS011;57132;51.972;4.450;2023-04-01T04:57:43;75.32;;;20.00;;
69835;SDS011;57132;51.972;4.450;2023-04-01T05:00:09;55.88;;;19.08;;
69835;SDS011;57132;51.972;4.450;2023-04-01T05:02:35;74.65;;;20.85;;
69835;SDS011;57132;51.972;4.450;2023-04-01T05:05:01;63.22;;;18.58;;
69835;SDS011;57132;51.972;4.450;2023-04-01T05:07:26;67.75;;;20.42;;
69835;SDS011;57132;51.972;4.450;2023-04-01T05:09:51;71.85;;;22.88;;
69835;SDS011;57132;51.972;4.450;2023-04-01T05:12:17;62.65;;;21.30;;
69835;SDS011;57132;51.972;4.450;2023-04-01T05:14:42;68.65;;;20.45;;
69835;SDS011;57132;51.972;4.450;2023-04-01T05:17:11;70.93;;;23.40;;
69835;SDS011;57132;51.972;4.450;2023-04-01T05:19:37;81.13;;;24.50;;
69835;SDS011;57132;51.972;4.450;2023-04-01T05:22:03;93.47;;;27.30;;
69835;SDS011;57132;51.972;4.450;2023-04-01T05:24:30;86.10;;;29.77;;
69835;SDS011;57132;51.972;4.450;2023-04-01T05:26:55;87.53;;;27.38;;
69835;SDS011;57132;51.972;4.450;2023-04-01T05:29:22;65.72;;;21.00;;
69835;SDS011;57132;51.972;4.450;2023-04-01T05:31:48;73.35;;;20.80;;
69835;SDS011;57132;51.972;4.450;2023-04-01T05:34:14;86.95;;;23.77;;
69835;SDS011;57132;51.972;4.450;2023-04-01T05:36:39;68.32;;;20.90;;
69835;SDS011;57132;51.972;4.450;2023-04-01T05:39:06;72.65;;;21.85;;
69835;SDS011;57132;51.972;4.450;2023-04-01T05:41:34;70.25;;;20.85;;
69835;SDS011;57132;51.972;4.450;2023-04-01T05:44:00;72.55;;;21.40;;
69835;SDS011;57132;51.972;4.450;2023-04-01T05:46:25;66.00;;;21.23;;
69835;SDS011;57132;51.972;4.450;2023-04-01T05:48:51;62.63;;;20.95;;
69835;SDS011;57132;51.972;4.450;2023-04-01T05:51:16;65.72;;;20.13;;
69835;SDS011;57132;51.972;4.450;2023-04-01T05:53:42;75.40;;;23.77;;
69835;SDS011;57132;51.972;4.450;2023-04-01T05:56:08;69.13;;;22.77;;
69835;SDS011;57132;51.972;4.450;2023-04-01T05:58:34;83.22;;;26.40;;
69835;SDS011;57132;51.972;4.450;2023-04-01T06:01:01;67.20;;;23.05;;
69835;SDS011;57132;51.972;4.450;2023-04-01T06:03:28;69.38;;;25.70;;
69835;SDS011;57132;51.972;4.450;2023-04-01T06:05:54;75.20;;;25.80;;
69835;SDS011;57132;51.972;4.450;2023-04-01T06:08:19;74.30;;;24.83;;
69835;SDS011;57132;51.972;4.450;2023-04-01T06:13:22;72.65;;;27.27;;
69835;SDS011;57132;51.972;4.450;2023-04-01T06:16:29;65.78;;;24.73;;
69835;SDS011;57132;51.972;4.450;2023-04-01T06:24:40;68.07;;;23.27;;
69835;SDS011;57132;51.972;4.450;2023-04-01T06:35:58;69.18;;;22.02;;
69835;SDS011;57132;51.972;4.450;2023-04-01T06:38:41;67.43;;;22.25;;
69835;SDS011;57132;51.972;4.450;2023-04-01T06:41:34;66.47;;;20.60;;
69835;SDS011;57132;51.972;4.450;2023-04-01T06:46:57;66.22;;;23.08;;
69835;SDS011;57132;51.972;4.450;2023-04-01T06:52:20;71.28;;;20.80;;
69835;SDS011;57132;51.972;4.450;2023-04-01T06:54:53;53.05;;;20.33;;
69835;SDS011;57132;51.972;4.450;2023-04-01T06:57:34;49.25;;;18.10;;
69835;SDS011;57132;51.972;4.450;2023-04-01T07:00:27;45.63;;;17.70;;
69835;SDS011;57132;51.972;4.450;2023-04-01T07:03:00;42.95;;;15.85;;
69835;SDS011;57132;51.972;4.450;2023-04-01T07:05:31;36.30;;;15.15;;
69835;SDS011;57132;51.972;4.450;2023-04-01T07:07:59;37.13;;;14.00;;
69835;SDS011;57132;51.972;4.450;2023-04-01T07:10:37;36.83;;;13.80;;
69835;SDS011;57132;51.972;4.450;2023-04-01T07:13:14;33.58;;;15.38;;
69835;SDS011;57132;51.972;4.450;2023-04-01T07:15:51;28.50;;;13.95;;
69835;SDS011;57132;51.972;4.450;2023-04-01T07:18:42;25.45;;;13.02;;
69835;SDS011;57132;51.972;4.450;2023-04-01T07:21:10;20.98;;;10.77;;
69835;SDS011;57132;51.972;4.450;2023-04-01T07:23:49;29.83;;;11.30;;
69835;SDS011;57132;51.972;4.450;2023-04-01T07:26:19;21.45;;;9.85;;
69835;SDS011;57132;51.972;4.450;2023-04-01T07:28:46;18.63;;;9.50;;
69835;SDS011;57132;51.972;4.450;2023-04-01T07:31:15;15.68;;;7.93;;
69835;SDS011;57132;51.972;4.450;2023-04-01T07:36:39;15.60;;;8.53;;
69835;SDS011;57132;51.972;4.450;2023-04-01T07:39:08;22.42;;;8.52;;
69835;SDS011;57132;51.972;4.450;2023-04-01T07:52:46;26.52;;;10.27;;
69835;SDS011;57132;51.972;4.450;2023-04-01T08:06:26;27.85;;;11.48;;
69835;SDS011;57132;51.972;4.450;2023-04-01T08:14:29;37.30;;;13.10;;
69835;SDS011;57132;51.972;4.450;2023-04-01T08:23:06;41.92;;;13.23;;
69835;SDS011;57132;51.972;4.450;2023-04-01T08:25:37;40.40;;;14.30;;
69835;SDS011;57132;51.972;4.450;2023-04-01T08:33:28;41.42;;;13.45;;
69835;SDS011;57132;51.972;4.450;2023-04-01T08:36:08;36.13;;;14.30;;
69835;SDS011;57132;51.972;4.450;2023-04-01T08:38:46;41.58;;;15.13;;
69835;SDS011;57132;51.972;4.450;2023-04-01T08:47:18;34.85;;;11.50;;
69835;SDS011;57132;51.972;4.450;2023-04-01T08:52:37;26.42;;;11.10;;
69835;SDS011;57132;51.972;4.450;2023-04-01T09:16:43;30.02;;;11.65;;
69835;SDS011;57132;51.972;4.450;2023-04-01T09:19:27;36.25;;;13.30;;
69835;SDS011;57132;51.972;4.450;2023-04-01T09:40:56;44.63;;;13.63;;
69835;SDS011;57132;51.972;4.450;2023-04-01T09:46:48;39.90;;;14.40;;
69835;SDS011;57132;51.972;4.450;2023-04-01T09:52:10;47.50;;;15.98;;
69835;SDS011;57132;51.972;4.450;2023-04-01T10:11:37;23.67;;;8.55;;
69835;SDS011;57132;51.972;4.450;2023-04-01T10:36:57;23.75;;;9.90;;
69835;SDS011;57132;51.972;4.450;2023-04-01T10:42:00;22.20;;;8.88;;
69835;SDS011;57132;51.972;4.450;2023-04-01T11:06:26;31.45;;;11.20;;
69835;SDS011;57132;51.972;4.450;2023-04-01T11:26:37;37.22;;;11.52;;
69835;SDS011;57132;51.972;4.450;2023-04-01T11:31:53;34.50;;;12.73;;
69835;SDS011;57132;51.972;4.450;2023-04-01T11:37:38;30.63;;;11.52;;
69835;SDS011;57132;51.972;4.450;2023-04-01T11:40:27;35.75;;;12.63;;
69835;SDS011;57132;51.972;4.450;2023-04-01T11:43:45;41.22;;;12.32;;
69835;SDS011;57132;51.972;4.450;2023-04-01T11:46:10;33.47;;;12.32;;
69835;SDS011;57132;51.972;4.450;2023-04-01T11:54:28;36.53;;;12.90;;
69835;SDS011;57132;51.972;4.450;2023-04-01T11:59:47;31.13;;;10.68;;
69835;SDS011;57132;51.972;4.450;2023-04-01T12:16:03;24.50;;;10.15;;
69835;SDS011;57132;51.972;4.450;2023-04-01T12:27:01;35.72;;;12.60;;
69835;SDS011;57132;51.972;4.450;2023-04-01T12:29:53;31.45;;;11.13;;
69835;SDS011;57132;51.972;4.450;2023-04-01T12:32:30;36.17;;;12.13;;
69835;SDS011;57132;51.972;4.450;2023-04-01T12:35:27;34.15;;;11.52;;
69835;SDS011;57132;51.972;4.450;2023-04-01T12:50:11;25.48;;;10.18;;
69835;SDS011;57132;51.972;4.450;2023-04-01T12:53:12;30.83;;;10.02;;
69835;SDS011;57132;51.972;4.450;2023-04-01T12:55:52;27.15;;;11.05;;
69835;SDS011;57132;51.972;4.450;2023-04-01T13:06:29;27.60;;;10.40;;
69835;SDS011;57132;51.972;4.450;2023-04-01T13:09:13;24.77;;;11.15;;
69835;SDS011;57132;51.972;4.450;2023-04-01T13:24:42;28.38;;;11.68;;
69835;SDS011;57132;51.972;4.450;2023-04-01T13:27:18;24.33;;;11.65;;
69835;SDS011;57132;51.972;4.450;2023-04-01T13:29:57;23.52;;;10.55;;
69835;SDS011;57132;51.972;4.450;2023-04-01T13:41:01;20.52;;;9.93;;
69835;SDS011;57132;51.972;4.450;2023-04-01T13:44:06;21.70;;;9.38;;
69835;SDS011;57132;51.972;4.450;2023-04-01T13:57:23;15.50;;;7.93;;
69835;SDS011;57132;51.972;4.450;2023-04-01T14:16:57;19.15;;;9.43;;
69835;SDS011;57132;51.972;4.450;2023-04-01T14:27:48;22.65;;;8.65;;
69835;SDS011;57132;51.972;4.450;2023-04-01T14:49:53;25.80;;;7.45;;
69835;SDS011;57132;51.972;4.450;2023-04-01T14:52:30;22.70;;;7.20;;
69835;SDS011;57132;51.972;4.450;2023-04-01T14:55:01;21.58;;;7.40;;
69835;SDS011;57132;51.972;4.450;2023-04-01T14:57:42;23.63;;;7.20;;
69835;SDS011;57132;51.972;4.450;2023-04-01T15:00:24;28.83;;;7.55;;
69835;SDS011;57132;51.972;4.450;2023-04-01T15:03:02;20.92;;;6.78;;
69835;SDS011;57132;51.972;4.450;2023-04-01T15:08:56;22.80;;;6.72;;
69835;SDS011;57132;51.972;4.450;2023-04-01T15:14:44;26.63;;;7.22;;
69835;SDS011;57132;51.972;4.450;2023-04-01T15:25:39;18.63;;;6.75;;
69835;SDS011;57132;51.972;4.450;2023-04-01T15:55:38;30.00;;;8.45;;
69835;SDS011;57132;51.972;4.450;2023-04-01T15:58:31;23.95;;;9.10;;
69835;SDS011;57132;51.972;4.450;2023-04-01T16:01:19;27.58;;;10.07;;
69835;SDS011;57132;51.972;4.450;2023-04-01T16:09:56;24.05;;;10.85;;
69835;SDS011;57132;51.972;4.450;2023-04-01T16:15:21;26.55;;;9.48;;
69835;SDS011;57132;51.972;4.450;2023-04-01T16:18:16;30.63;;;10.10;;
69835;SDS011;57132;51.972;4.450;2023-04-01T16:23:43;26.52;;;11.25;;
69835;SDS011;57132;51.972;4.450;2023-04-01T16:34:34;36.47;;;11.25;;
69835;SDS011;57132;51.972;4.450;2023-04-01T16:37:36;27.10;;;10.55;;
69835;SDS011;57132;51.972;4.450;2023-04-01T16:42:51;21.80;;;10.52;;
69835;SDS011;57132;51.972;4.450;2023-04-01T16:45:21;22.60;;;11.20;;
69835;SDS011;57132;51.972;4.450;2023-04-01T16:48:16;19.50;;;10.90;;
69835;SDS011;57132;51.972;4.450;2023-04-01T16:53:43;20.70;;;10.82;;
69835;SDS011;57132;51.972;4.450;2023-04-01T16:56:14;20.00;;;10.65;;
69835;SDS011;57132;51.972;4.450;2023-04-01T17:04:48;21.45;;;10.32;;
69835;SDS011;57132;51.972;4.450;2023-04-01T17:07:36;20.65;;;10.45;;
69835;SDS011;57132;51.972;4.450;2023-04-01T17:16:14;23.65;;;12.57;;
69835;SDS011;57132;51.972;4.450;2023-04-01T17:29:59;20.83;;;12.63;;
69835;SDS011;57132;51.972;4.450;2023-04-01T17:41:19;19.90;;;10.85;;
69835;SDS011;57132;51.972;4.450;2023-04-01T17:44:16;20.02;;;11.90;;
69835;SDS011;57132;51.972;4.450;2023-04-01T17:47:36;19.38;;;11.85;;
69835;SDS011;57132;51.972;4.450;2023-04-01T18:00:26;18.13;;;10.68;;
69835;SDS011;57132;51.972;4.450;2023-04-01T18:06:03;19.80;;;10.98;;
69835;SDS011;57132;51.972;4.450;2023-04-01T18:08:58;17.92;;;11.80;;
69835;SDS011;57132;51.972;4.450;2023-04-01T18:11:34;16.65;;;11.18;;
69835;SDS011;57132;51.972;4.450;2023-04-01T18:17:09;18.90;;;12.35;;
69835;SDS011;57132;51.972;4.450;2023-04-01T18:22:43;15.25;;;10.40;;
69835;SDS011;57132;51.972;4.450;2023-04-01T18:27:44;18.70;;;12.00;;
69835;SDS011;57132;51.972;4.450;2023-04-01T18:32:50;22.48;;;11.93;;
69835;SDS011;57132;51.972;4.450;2023-04-01T18:35:34;16.85;;;11.07;;
69835;SDS011;57132;51.972;4.450;2023-04-01T18:38:40;17.92;;;11.40;;
69835;SDS011;57132;51.972;4.450;2023-04-01T18:41:28;14.13;;;10.13;;
69835;SDS011;57132;51.972;4.450;2023-04-01T18:52:19;17.42;;;11.00;;
69835;SDS011;57132;51.972;4.450;2023-04-01T18:55:20;17.83;;;11.93;;
69835;SDS011;57132;51.972;4.450;2023-04-01T18:57:50;17.77;;;11.52;;
69835;SDS011;57132;51.972;4.450;2023-04-01T19:02:54;18.55;;;11.50;;
69835;SDS011;57132;51.972;4.450;2023-04-01T19:05:34;18.73;;;12.23;;
69835;SDS011;57132;51.972;4.450;2023-04-01T19:13:30;18.38;;;11.82;;
69835;SDS011;57132;51.972;4.450;2023-04-01T19:16:05;16.80;;;11.75;;
69835;SDS011;57132;51.972;4.450;2023-04-01T19:29:23;17.85;;;10.68;;
69835;SDS011;57132;51.972;4.450;2023-04-01T19:43:03;13.80;;;10.32;;
69835;SDS011;57132;51.972;4.450;2023-04-01T19:45:43;13.35;;;9.57;;
69835;SDS011;57132;51.972;4.450;2023-04-01T19:48:26;14.32;;;9.25;;
69835;SDS011;57132;51.972;4.450;2023-04-01T19:51:07;14.15;;;9.38;;
69835;SDS011;57132;51.972;4.450;2023-04-01T19:56:23;13.43;;;9.57;;
69835;SDS011;57132;51.972;4.450;2023-04-01T19:58:59;16.65;;;9.75;;
69835;SDS011;57132;51.972;4.450;2023-04-01T20:01:44;15.48;;;10.93;;
69835;SDS011;57132;51.972;4.450;2023-04-01T20:07:09;17.92;;;12.10;;
69835;SDS011;57132;51.972;4.450;2023-04-01T20:15:21;16.55;;;12.15;;
69835;SDS011;57132;51.972;4.450;2023-04-01T20:17:57;19.63;;;12.15;;
69835;SDS011;57132;51.972;4.450;2023-04-01T20:20:27;17.50;;;12.73;;
69835;SDS011;57132;51.972;4.450;2023-04-01T20:22:57;21.13;;;13.02;;
69835;SDS011;57132;51.972;4.450;2023-04-01T20:26:19;22.38;;;14.25;;
69835;SDS011;57132;51.972;4.450;2023-04-01T20:28:32;20.75;;;13.15;;
69835;SDS011;57132;51.972;4.450;2023-04-01T20:53:04;25.90;;;14.88;;
69835;SDS011;57132;51.972;4.450;2023-04-01T21:04:18;20.02;;;13.98;;
69835;SDS011;57132;51.972;4.450;2023-04-01T21:07:20;22.25;;;13.32;;
69835;SDS011;57132;51.972;4.450;2023-04-01T21:10:06;21.75;;;12.43;;
69835;SDS011;57132;51.972;4.450;2023-04-01T21:26:30;18.88;;;10.35;;
69835;SDS011;57132;51.972;4.450;2023-04-01T21:48:21;13.60;;;10.10;;
69835;SDS011;57132;51.972;4.450;2023-04-01T22:07:45;16.60;;;8.55;;
69835;SDS011;57132;51.972;4.450;2023-04-01T22:20:58;10.30;;;7.00;;
69835;SDS011;57132;51.972;4.450;2023-04-01T22:26:09;13.30;;;7.55;;
69835;SDS011;57132;51.972;4.450;2023-04-01T22:29:03;14.15;;;7.43;;
69835;SDS011;57132;51.972;4.450;2023-04-01T22:31:42;11.60;;;7.50;;
69835;SDS011;57132;51.972;4.450;2023-04-01T22:34:16;10.65;;;7.43;;
69835;SDS011;57132;51.972;4.450;2023-04-01T22:36:56;13.95;;;8.18;;
69835;SDS011;57132;51.972;4.450;2023-04-01T22:55:52;18.77;;;10.20;;
69835;SDS011;57132;51.972;4.450;2023-04-01T22:58:38;16.30;;;10.27;;
69835;SDS011;57132;51.972;4.450;2023-04-01T23:01:11;17.70;;;9.68;;
69835;SDS011;57132;51.972;4.450;2023-04-01T23:03:41;18.23;;;10.63;;
69835;SDS011;57132;51.972;4.450;2023-04-01T23:06:12;14.77;;;9.80;;
69835;SDS011;57132;51.972;4.450;2023-04-01T23:08:53;19.35;;;11.73;;
69835;SDS011;57132;51.972;4.450;2023-04-01T23:11:44;18.88;;;10.73;;
69835;SDS011;57132;51.972;4.450;2023-04-01T23:14:28;21.98;;;12.10;;
69835;SDS011;57132;51.972;4.450;2023-04-01T23:20:25;22.47;;;11.60;;
69835;SDS011;57132;51.972;4.450;2023-04-01T23:27:56;19.60;;;11.90;;
69835;SDS011;57132;51.972;4.450;2023-04-01T23:35:48;17.42;;;11.48;;
69835;SDS011;57132;51.972;4.450;2023-04-01T23:38:47;23.33;;;11.35;;
69835;SDS011;57132;51.972;4.450;2023-04-01T23:41:32;15.85;;;9.88;;
69835;SDS011;57132;51.972;4.450;2023-04-01T23:44:02;21.63;;;12.48;;
69835;SDS011;57132;51.972;4.450;2023-04-01T23:46:30;22.08;;;11.93;;
69835;SDS011;57132;51.972;4.450;2023-04-01T23:48:58;25.98;;;13.40;;
69835;SDS011;57132;51.972;4.450;2023-04-01T23:51:26;20.30;;;11.98;;
69835;SDS011;57132;51.972;4.450;2023-04-01T23:54:38;22.55;;;12.70;;
69835;SDS011;57132;51.972;4.450;2023-04-01T23:56:46;17.40;;;11.43;;
69835;SDS011;57132;51.972;4.450;2023-04-01T23:59:17;21.52;;;12.45;;
